sensor_id;sensor_type;location;lat;lon;timestamp;pressure;altitude;pressure_sealevel;temperature;humidity
30935;BME280;51033;42.648;23.292;2023-03-14T00:01:22;94036.66;;;3.86;42.30
30935;BME280;51033;42.648;23.292;2023-03-14T00:03:48;94028.25;;;3.84;42.10
30935;BME280;51033;42.648;23.292;2023-03-14T00:06:14;94031.09;;;3.93;42.20
30935;BME280;51033;42.648;23.292;2023-03-14T00:08:41;94036.09;;;4.04;42.20
30935;BME280;51033;42.648;23.292;2023-03-14T00:11:18;94023.50;;;3.91;42.15
30935;BME280;51033;42.648;23.292;2023-03-14T00:13:48;94028.75;;;3.91;42.21
30935;BME280;51033;42.648;23.292;2023-03-14T00:16:16;94016.13;;;3.88;42.39
30935;BME280;51033;42.648;23.292;2023-03-14T00:18:42;93988.53;;;3.65;42.46
30935;BME280;51033;42.648;23.292;2023-03-14T00:21:09;94003.53;;;3.75;42.63
30935;BME280;51033;42.648;23.292;2023-03-14T00:23:37;93995.09;;;3.73;42.24
30935;BME280;51033;42.648;23.292;2023-03-14T00:26:05;94010.34;;;3.91;42.17
30935;BME280;51033;42.648;23.292;2023-03-14T00:28:31;93970.38;;;3.69;42.27
30935;BME280;51033;42.648;23.292;2023-03-14T00:30:57;93982.47;;;3.80;42.30
30935;BME280;51033;42.648;23.292;2023-03-14T00:33:22;93962.75;;;3.72;42.48
30935;BME280;51033;42.648;23.292;2023-03-14T00:36:08;93933.59;;;3.44;42.46
30935;BME280;51033;42.648;23.292;2023-03-14T00:38:35;93981.41;;;3.81;42.57
30935;BME280;51033;42.648;23.292;2023-03-14T00:41:08;93986.16;;;3.79;42.91
30935;BME280;51033;42.648;23.292;2023-03-14T00:43:34;93964.84;;;3.75;43.10
30935;BME280;51033;42.648;23.292;2023-03-14T00:46:00;93973.25;;;3.82;42.89
30935;BME280;51033;42.648;23.292;2023-03-14T00:48:26;93981.44;;;3.76;43.01
30935;BME280;51033;42.648;23.292;2023-03-14T00:50:51;93975.66;;;3.69;43.02
30935;BME280;51033;42.648;23.292;2023-03-14T00:53:16;93979.56;;;3.87;42.76
30935;BME280;51033;42.648;23.292;2023-03-14T00:55:43;93982.69;;;3.99;42.40
30935;BME280;51033;42.648;23.292;2023-03-14T00:58:10;93951.94;;;3.79;42.37
30935;BME280;51033;42.648;23.292;2023-03-14T01:00:36;93971.69;;;3.81;42.67
30935;BME280;51033;42.648;23.292;2023-03-14T01:03:01;93972.50;;;3.62;43.52
30935;BME280;51033;42.648;23.292;2023-03-14T01:05:27;93955.44;;;3.44;43.32
30935;BME280;51033;42.648;23.292;2023-03-14T01:07:52;93940.19;;;3.41;43.52
30935;BME280;51033;42.648;23.292;2023-03-14T01:10:18;93939.94;;;3.37;43.59
30935;BME280;51033;42.648;23.292;2023-03-14T01:12:43;93951.97;;;3.64;43.51
30935;BME280;51033;42.648;23.292;2023-03-14T01:15:09;93940.94;;;3.62;43.33
30935;BME280;51033;42.648;23.292;2023-03-14T01:17:35;93907.06;;;3.30;43.83
30935;BME280;51033;42.648;23.292;2023-03-14T01:20:00;93957.53;;;3.47;43.95
30935;BME280;51033;42.648;23.292;2023-03-14T01:22:26;93935.47;;;3.28;44.07
30935;BME280;51033;42.648;23.292;2023-03-14T01:24:52;93938.88;;;3.28;43.95
30935;BME280;51033;42.648;23.292;2023-03-14T01:27:17;93925.75;;;3.18;44.00
30935;BME280;51033;42.648;23.292;2023-03-14T01:29:42;93949.91;;;3.35;44.21
30935;BME280;51033;42.648;23.292;2023-03-14T01:32:08;93956.22;;;3.45;44.13
30935;BME280;51033;42.648;23.292;2023-03-14T01:34:33;93926.81;;;3.22;44.21
30935;BME280;51033;42.648;23.292;2023-03-14T01:36:59;93916.56;;;3.16;44.22
30935;BME280;51033;42.648;23.292;2023-03-14T01:39:24;93912.09;;;3.16;44.28
30935;BME280;51033;42.648;23.292;2023-03-14T01:41:49;93944.91;;;3.44;43.92
30935;BME280;51033;42.648;23.292;2023-03-14T01:44:15;93924.19;;;3.27;44.07
30935;BME280;51033;42.648;23.292;2023-03-14T01:46:42;93945.72;;;3.34;43.98
30935;BME280;51033;42.648;23.292;2023-03-14T01:52:01;93940.44;;;3.34;43.49
30935;BME280;51033;42.648;23.292;2023-03-14T01:57:11;93932.31;;;3.36;43.79
30935;BME280;51033;42.648;23.292;2023-03-14T01:59:40;93924.69;;;3.34;43.69
30935;BME280;51033;42.648;23.292;2023-03-14T02:02:09;93930.47;;;3.31;43.49
30935;BME280;51033;42.648;23.292;2023-03-14T02:04:37;93914.72;;;3.06;43.83
30935;BME280;51033;42.648;23.292;2023-03-14T02:07:30;93892.91;;;2.95;43.92
30935;BME280;51033;42.648;23.292;2023-03-14T02:10:00;93925.47;;;3.15;44.23
30935;BME280;51033;42.648;23.292;2023-03-14T02:12:26;93915.25;;;3.13;44.28
30935;BME280;51033;42.648;23.292;2023-03-14T02:14:53;93916.81;;;3.24;43.92
30935;BME280;51033;42.648;23.292;2023-03-14T02:17:19;93891.31;;;3.15;43.50
30935;BME280;51033;42.648;23.292;2023-03-14T02:22:20;93915.75;;;3.20;43.20
30935;BME280;51033;42.648;23.292;2023-03-14T02:27:33;93906.59;;;3.03;43.06
30935;BME280;51033;42.648;23.292;2023-03-14T02:30:06;93908.16;;;2.99;43.50
30935;BME280;51033;42.648;23.292;2023-03-14T02:32:34;93871.38;;;2.88;43.31
30935;BME280;51033;42.648;23.292;2023-03-14T02:35:06;93890.53;;;2.99;43.15
30935;BME280;51033;42.648;23.292;2023-03-14T02:37:57;93913.38;;;3.14;43.28
30935;BME280;51033;42.648;23.292;2023-03-14T02:40:26;93908.91;;;2.94;44.21
30935;BME280;51033;42.648;23.292;2023-03-14T02:42:51;93877.13;;;2.75;44.41
30935;BME280;51033;42.648;23.292;2023-03-14T02:47:46;93903.13;;;2.67;44.75
30935;BME280;51033;42.648;23.292;2023-03-14T02:50:18;93880.25;;;2.32;45.03
30935;BME280;51033;42.648;23.292;2023-03-14T02:52:45;93916.81;;;2.64;44.84
30935;BME280;51033;42.648;23.292;2023-03-14T02:55:11;93902.88;;;2.63;44.48
30935;BME280;51033;42.648;23.292;2023-03-14T02:57:36;93927.03;;;2.75;44.50
30935;BME280;51033;42.648;23.292;2023-03-14T03:00:03;93912.59;;;2.63;44.97
30935;BME280;51033;42.648;23.292;2023-03-14T03:02:32;93924.94;;;2.72;44.98
30935;BME280;51033;42.648;23.292;2023-03-14T03:04:58;93904.19;;;2.61;44.77
30935;BME280;51033;42.648;23.292;2023-03-14T03:07:23;93934.13;;;2.70;44.96
30935;BME280;51033;42.648;23.292;2023-03-14T03:09:49;93926.78;;;2.67;44.72
30935;BME280;51033;42.648;23.292;2023-03-14T03:12:14;93889.47;;;2.44;44.95
30935;BME280;51033;42.648;23.292;2023-03-14T03:14:39;93924.69;;;2.64;44.81
30935;BME280;51033;42.648;23.292;2023-03-14T03:17:05;93893.16;;;2.53;44.71
30935;BME280;51033;42.648;23.292;2023-03-14T03:19:31;93903.13;;;2.62;44.62
30935;BME280;51033;42.648;23.292;2023-03-14T03:21:57;93909.72;;;2.64;44.41
30935;BME280;51033;42.648;23.292;2023-03-14T03:24:23;93919.97;;;2.81;44.15
30935;BME280;51033;42.648;23.292;2023-03-14T03:26:48;93917.59;;;2.79;44.40
30935;BME280;51033;42.648;23.292;2023-03-14T03:29:14;93917.59;;;2.84;44.38
30935;BME280;51033;42.648;23.292;2023-03-14T03:31:40;93903.94;;;2.72;44.60
30935;BME280;51033;42.648;23.292;2023-03-14T03:34:05;93920.50;;;2.73;44.43
30935;BME280;51033;42.648;23.292;2023-03-14T03:36:30;93907.34;;;2.63;44.55
30935;BME280;51033;42.648;23.292;2023-03-14T03:38:56;93918.38;;;2.75;44.52
30935;BME280;51033;42.648;23.292;2023-03-14T03:41:21;93911.03;;;2.77;44.58
30935;BME280;51033;42.648;23.292;2023-03-14T03:43:46;93879.50;;;2.62;44.77
30935;BME280;51033;42.648;23.292;2023-03-14T03:46:12;93922.34;;;2.87;44.77
30935;BME280;51033;42.648;23.292;2023-03-14T03:48:37;93917.88;;;2.83;44.86
30935;BME280;51033;42.648;23.292;2023-03-14T03:51:03;93928.63;;;2.76;45.36
30935;BME280;51033;42.648;23.292;2023-03-14T03:53:29;93931.00;;;2.78;45.29
30935;BME280;51033;42.648;23.292;2023-03-14T03:55:54;93910.75;;;2.48;45.57
30935;BME280;51033;42.648;23.292;2023-03-14T03:58:20;93935.19;;;2.64;45.58
30935;BME280;51033;42.648;23.292;2023-03-14T04:00:45;93916.78;;;2.59;45.54
30935;BME280;51033;42.648;23.292;2023-03-14T04:03:11;93889.47;;;2.44;45.80
30935;BME280;51033;42.648;23.292;2023-03-14T04:05:36;93923.91;;;2.68;45.52
30935;BME280;51033;42.648;23.292;2023-03-14T04:08:02;93932.56;;;2.59;45.68
30935;BME280;51033;42.648;23.292;2023-03-14T04:10:28;93900.22;;;2.38;45.88
30935;BME280;51033;42.648;23.292;2023-03-14T04:12:53;93903.09;;;2.36;45.81
30935;BME280;51033;42.648;23.292;2023-03-14T04:15:18;93899.41;;;2.32;45.53
30935;BME280;51033;42.648;23.292;2023-03-14T04:17:44;93886.81;;;2.29;45.77
30935;BME280;51033;42.648;23.292;2023-03-14T04:20:10;93903.63;;;2.43;45.48
30935;BME280;51033;42.648;23.292;2023-03-14T04:22:39;93920.69;;;2.46;45.75
30935;BME280;51033;42.648;23.292;2023-03-14T04:25:05;93894.69;;;2.34;45.73
30935;BME280;51033;42.648;23.292;2023-03-14T04:27:30;93908.88;;;2.38;45.92
30935;BME280;51033;42.648;23.292;2023-03-14T04:29:56;93877.34;;;2.18;45.92
30935;BME280;51033;42.648;23.292;2023-03-14T04:32:21;93894.38;;;2.21;45.72
30935;BME280;51033;42.648;23.292;2023-03-14T04:34:47;93862.59;;;2.07;46.08
30935;BME280;51033;42.648;23.292;2023-03-14T04:37:12;93890.72;;;2.27;45.93
30935;BME280;51033;42.648;23.292;2023-03-14T04:39:38;93896.78;;;2.27;46.04
30935;BME280;51033;42.648;23.292;2023-03-14T04:42:03;93843.97;;;2.03;46.12
30935;BME280;51033;42.648;23.292;2023-03-14T04:44:29;93866.06;;;2.23;46.11
30935;BME280;51033;42.648;23.292;2023-03-14T04:46:54;93856.59;;;2.22;46.08
30935;BME280;51033;42.648;23.292;2023-03-14T04:49:19;93883.63;;;2.22;46.00
30935;BME280;51033;42.648;23.292;2023-03-14T04:51:45;93863.16;;;2.14;46.35
30935;BME280;51033;42.648;23.292;2023-03-14T04:54:10;93868.47;;;2.34;45.85
30935;BME280;51033;42.648;23.292;2023-03-14T04:56:35;93874.50;;;2.45;45.88
30935;BME280;51033;42.648;23.292;2023-03-14T04:59:02;93863.72;;;2.31;46.09
30935;BME280;51033;42.648;23.292;2023-03-14T05:01:27;93847.97;;;2.31;45.96
30935;BME280;51033;42.648;23.292;2023-03-14T05:03:53;93873.97;;;2.43;46.47
30935;BME280;51033;42.648;23.292;2023-03-14T05:06:18;93866.34;;;2.36;46.39
30935;BME280;51033;42.648;23.292;2023-03-14T05:08:44;93848.75;;;2.32;46.30
30935;BME280;51033;42.648;23.292;2023-03-14T05:11:10;93852.72;;;2.34;46.24
30935;BME280;51033;42.648;23.292;2023-03-14T05:13:36;93824.03;;;2.07;46.48
30935;BME280;51033;42.648;23.292;2023-03-14T05:16:09;93871.88;;;2.40;46.39
30935;BME280;51033;42.648;23.292;2023-03-14T05:18:35;93875.56;;;2.49;46.61
30935;BME280;51033;42.648;23.292;2023-03-14T05:21:01;93865.84;;;2.49;46.77
30935;BME280;51033;42.648;23.292;2023-03-14T05:23:27;93867.16;;;2.62;46.85
30935;BME280;51033;42.648;23.292;2023-03-14T05:25:52;93861.38;;;2.60;46.72
30935;BME280;51033;42.648;23.292;2023-03-14T05:28:18;93829.59;;;2.46;46.80
30935;BME280;51033;42.648;23.292;2023-03-14T05:30:43;93814.91;;;2.40;47.31
30935;BME280;51033;42.648;23.292;2023-03-14T05:33:08;93865.34;;;2.78;47.38
30935;BME280;51033;42.648;23.292;2023-03-14T05:35:34;93868.22;;;2.91;46.74
30935;BME280;51033;42.648;23.292;2023-03-14T05:37:59;93838.53;;;2.86;45.50
30935;BME280;51033;42.648;23.292;2023-03-14T05:40:25;93831.97;;;3.04;45.35
30935;BME280;51033;42.648;23.292;2023-03-14T05:42:50;93837.97;;;3.09;45.04
30935;BME280;51033;42.648;23.292;2023-03-14T05:45:16;93848.00;;;2.51;45.70
30935;BME280;51033;42.648;23.292;2023-03-14T05:47:41;93873.22;;;2.88;45.69
30935;BME280;51033;42.648;23.292;2023-03-14T05:50:07;93824.09;;;2.93;44.26
30935;BME280;51033;42.648;23.292;2023-03-14T05:52:33;93866.06;;;3.34;43.99
30935;BME280;51033;42.648;23.292;2023-03-14T05:54:58;93840.50;;;3.50;43.71
30935;BME280;51033;42.648;23.292;2023-03-14T05:57:23;93870.16;;;3.70;43.27
30935;BME280;51033;42.648;23.292;2023-03-14T05:59:49;93828.00;;;3.06;44.29
30935;BME280;51033;42.648;23.292;2023-03-14T06:02:14;93865.59;;;3.07;44.74
30935;BME280;51033;42.648;23.292;2023-03-14T06:04:40;93847.38;;;3.46;44.61
30935;BME280;51033;42.648;23.292;2023-03-14T06:07:05;93862.50;;;3.79;43.50
30935;BME280;51033;42.648;23.292;2023-03-14T06:09:31;93859.03;;;3.94;42.96
30935;BME280;51033;42.648;23.292;2023-03-14T06:11:56;93845.72;;;3.70;43.50
30935;BME280;51033;42.648;23.292;2023-03-14T06:14:21;93836.84;;;3.51;43.98
30935;BME280;51033;42.648;23.292;2023-03-14T06:16:47;93848.38;;;3.60;43.67
30935;BME280;51033;42.648;23.292;2023-03-14T06:19:16;93860.00;;;3.38;44.08
30935;BME280;51033;42.648;23.292;2023-03-14T06:21:41;93844.38;;;3.72;43.75
30935;BME280;51033;42.648;23.292;2023-03-14T06:24:07;93839.00;;;3.23;44.73
30935;BME280;51033;42.648;23.292;2023-03-14T06:26:33;93869.72;;;3.38;45.29
30935;BME280;51033;42.648;23.292;2023-03-14T06:28:58;93839.06;;;2.98;45.54
30935;BME280;51033;42.648;23.292;2023-03-14T06:31:31;93851.94;;;2.64;46.58
30935;BME280;51033;42.648;23.292;2023-03-14T06:33:56;93839.81;;;2.13;46.81
30935;BME280;51033;42.648;23.292;2023-03-14T06:36:22;93877.41;;;2.94;46.06
30935;BME280;51033;42.648;23.292;2023-03-14T06:38:47;93871.88;;;3.16;45.90
30935;BME280;51033;42.648;23.292;2023-03-14T06:41:13;93876.03;;;3.47;44.98
30935;BME280;51033;42.648;23.292;2023-03-14T06:43:38;93842.63;;;3.48;44.91
30935;BME280;51033;42.648;23.292;2023-03-14T06:46:04;93846.81;;;3.49;42.73
30935;BME280;51033;42.648;23.292;2023-03-14T06:48:29;93861.09;;;3.27;43.77
30935;BME280;51033;42.648;23.292;2023-03-14T06:50:54;93847.91;;;3.48;44.08
30935;BME280;51033;42.648;23.292;2023-03-14T06:53:20;93826.75;;;3.73;43.57
30935;BME280;51033;42.648;23.292;2023-03-14T06:55:46;93847.00;;;3.72;43.51
30935;BME280;51033;42.648;23.292;2023-03-14T06:58:11;93840.38;;;3.90;43.17
30935;BME280;51033;42.648;23.292;2023-03-14T07:00:36;93822.22;;;3.04;44.33
30935;BME280;51033;42.648;23.292;2023-03-14T07:03:02;93829.13;;;3.69;44.18
30935;BME280;51033;42.648;23.292;2023-03-14T07:05:28;93812.97;;;3.96;43.22
30935;BME280;51033;42.648;23.292;2023-03-14T07:07:53;93816.88;;;3.39;44.45
30935;BME280;51033;42.648;23.292;2023-03-14T07:10:19;93813.66;;;3.58;44.60
30935;BME280;51033;42.648;23.292;2023-03-14T07:12:44;93795.56;;;3.51;44.21
30935;BME280;51033;42.648;23.292;2023-03-14T07:15:10;93832.28;;;3.76;44.24
30935;BME280;51033;42.648;23.292;2023-03-14T07:17:35;93830.19;;;4.22;43.65
30935;BME280;51033;42.648;23.292;2023-03-14T07:20:01;93837.22;;;3.83;44.30
30935;BME280;51033;42.648;23.292;2023-03-14T07:22:28;93837.28;;;3.73;44.94
30935;BME280;51033;42.648;23.292;2023-03-14T07:24:53;93828.03;;;4.35;43.49
30935;BME280;51033;42.648;23.292;2023-03-14T07:27:19;93826.97;;;4.75;42.41
30935;BME280;51033;42.648;23.292;2023-03-14T07:29:44;93816.00;;;4.91;41.64
30935;BME280;51033;42.648;23.292;2023-03-14T07:32:09;93816.09;;;4.47;42.29
30935;BME280;51033;42.648;23.292;2023-03-14T07:34:35;93819.41;;;4.63;42.27
30935;BME280;51033;42.648;23.292;2023-03-14T07:37:00;93814.78;;;4.50;42.51
30935;BME280;51033;42.648;23.292;2023-03-14T07:39:26;93792.81;;;4.93;41.62
30935;BME280;51033;42.648;23.292;2023-03-14T07:41:51;93816.59;;;4.83;41.64
30935;BME280;51033;42.648;23.292;2023-03-14T07:44:16;93785.38;;;4.33;41.92
30935;BME280;51033;42.648;23.292;2023-03-14T07:46:42;93799.56;;;4.70;42.26
30935;BME280;51033;42.648;23.292;2023-03-14T07:49:07;93769.34;;;4.63;41.38
30935;BME280;51033;42.648;23.292;2023-03-14T07:51:33;93801.81;;;5.16;41.53
30935;BME280;51033;42.648;23.292;2023-03-14T07:53:58;93808.44;;;5.13;41.70
30935;BME280;51033;42.648;23.292;2023-03-14T07:56:23;93792.47;;;5.24;41.00
30935;BME280;51033;42.648;23.292;2023-03-14T07:58:49;93799.22;;;5.35;41.04
30935;BME280;51033;42.648;23.292;2023-03-14T08:01:14;93783.84;;;4.60;41.71
30935;BME280;51033;42.648;23.292;2023-03-14T08:03:40;93781.50;;;4.59;42.10
30935;BME280;51033;42.648;23.292;2023-03-14T08:06:06;93783.75;;;4.70;41.81
30935;BME280;51033;42.648;23.292;2023-03-14T08:08:31;93792.72;;;5.27;40.80
30935;BME280;51033;42.648;23.292;2023-03-14T08:11:03;93779.53;;;4.41;42.24
30935;BME280;51033;42.648;23.292;2023-03-14T08:13:28;93775.22;;;4.55;41.79
30935;BME280;51033;42.648;23.292;2023-03-14T08:15:53;93773.16;;;5.04;41.72
30935;BME280;51033;42.648;23.292;2023-03-14T08:18:19;93784.81;;;5.51;41.26
30935;BME280;51033;42.648;23.292;2023-03-14T08:20:44;93791.16;;;5.50;40.71
30935;BME280;51033;42.648;23.292;2023-03-14T08:23:10;93789.50;;;5.78;39.71
30935;BME280;51033;42.648;23.292;2023-03-14T08:25:35;93793.53;;;6.13;39.57
30935;BME280;51033;42.648;23.292;2023-03-14T08:28:00;93783.94;;;6.40;38.67
30935;BME280;51033;42.648;23.292;2023-03-14T08:30:26;93786.38;;;5.76;39.34
30935;BME280;51033;42.648;23.292;2023-03-14T08:32:51;93778.38;;;5.81;39.45
30935;BME280;51033;42.648;23.292;2023-03-14T08:35:17;93780.63;;;5.69;39.85
30935;BME280;51033;42.648;23.292;2023-03-14T08:37:42;93747.50;;;6.00;38.45
30935;BME280;51033;42.648;23.292;2023-03-14T08:40:09;93777.22;;;5.68;39.61
30935;BME280;51033;42.648;23.292;2023-03-14T08:42:39;93753.25;;;6.02;38.96
30935;BME280;51033;42.648;23.292;2023-03-14T08:45:06;93760.84;;;6.09;39.40
30935;BME280;51033;42.648;23.292;2023-03-14T08:47:32;93764.34;;;6.04;39.35
30935;BME280;51033;42.648;23.292;2023-03-14T08:49:57;93752.91;;;6.09;39.63
30935;BME280;51033;42.648;23.292;2023-03-14T08:52:23;93735.44;;;6.31;38.63
30935;BME280;51033;42.648;23.292;2023-03-14T08:54:48;93734.34;;;6.83;37.61
30935;BME280;51033;42.648;23.292;2023-03-14T08:57:14;93757.44;;;6.92;36.94
30935;BME280;51033;42.648;23.292;2023-03-14T08:59:39;93711.63;;;6.18;37.47
30935;BME280;51033;42.648;23.292;2023-03-14T09:02:05;93744.88;;;6.00;38.42
30935;BME280;51033;42.648;23.292;2023-03-14T09:04:32;93721.63;;;6.21;38.70
30935;BME280;51033;42.648;23.292;2023-03-14T09:06:57;93723.47;;;6.53;37.30
30935;BME280;51033;42.648;23.292;2023-03-14T09:09:24;93713.97;;;6.19;36.75
30935;BME280;51033;42.648;23.292;2023-03-14T09:11:49;93725.09;;;6.67;36.89
30935;BME280;51033;42.648;23.292;2023-03-14T09:14:14;93723.00;;;6.32;37.01
30935;BME280;51033;42.648;23.292;2023-03-14T09:16:40;93717.31;;;5.87;37.81
30935;BME280;51033;42.648;23.292;2023-03-14T09:19:05;93689.72;;;5.61;37.96
30935;BME280;51033;42.648;23.292;2023-03-14T09:21:31;93701.19;;;5.89;38.50
30935;BME280;51033;42.648;23.292;2023-03-14T09:23:56;93685.38;;;5.70;39.21
30935;BME280;51033;42.648;23.292;2023-03-14T09:26:22;93694.03;;;6.27;38.97
30935;BME280;51033;42.648;23.292;2023-03-14T09:28:47;93684.50;;;6.31;38.26
30935;BME280;51033;42.648;23.292;2023-03-14T09:31:14;93661.88;;;6.25;37.90
30935;BME280;51033;42.648;23.292;2023-03-14T09:33:39;93662.25;;;6.64;38.25
30935;BME280;51033;42.648;23.292;2023-03-14T09:36:05;93682.97;;;6.57;37.42
30935;BME280;51033;42.648;23.292;2023-03-14T09:38:31;93675.13;;;6.52;38.23
30935;BME280;51033;42.648;23.292;2023-03-14T09:40:59;93673.81;;;6.68;37.80
30935;BME280;51033;42.648;23.292;2023-03-14T09:43:26;93664.22;;;6.72;37.48
30935;BME280;51033;42.648;23.292;2023-03-14T09:45:54;93657.38;;;7.26;36.80
30935;BME280;51033;42.648;23.292;2023-03-14T09:48:21;93666.28;;;7.03;36.60
30935;BME280;51033;42.648;23.292;2023-03-14T09:50:58;93656.88;;;6.83;36.93
30935;BME280;51033;42.648;23.292;2023-03-14T09:53:36;93615.09;;;6.99;37.38
30935;BME280;51033;42.648;23.292;2023-03-14T09:56:04;93645.72;;;7.27;37.08
30935;BME280;51033;42.648;23.292;2023-03-14T09:58:36;93624.56;;;7.27;37.22
30935;BME280;51033;42.648;23.292;2023-03-14T10:01:03;93633.19;;;7.19;36.41
30935;BME280;51033;42.648;23.292;2023-03-14T10:03:31;93622.72;;;7.50;36.18
30935;BME280;51033;42.648;23.292;2023-03-14T10:05:58;93611.41;;;7.36;36.47
30935;BME280;51033;42.648;23.292;2023-03-14T10:08:24;93595.31;;;7.46;35.82
30935;BME280;51033;42.648;23.292;2023-03-14T10:10:50;93570.97;;;7.21;36.20
30935;BME280;51033;42.648;23.292;2023-03-14T10:13:18;93597.38;;;7.35;35.89
30935;BME280;51033;42.648;23.292;2023-03-14T10:15:58;93615.06;;;7.62;36.07
30935;BME280;51033;42.648;23.292;2023-03-14T10:18:24;93590.03;;;7.82;36.05
30935;BME280;51033;42.648;23.292;2023-03-14T10:21:24;93593.41;;;8.27;35.72
30935;BME280;51033;42.648;23.292;2023-03-14T10:23:46;93578.25;;;8.19;35.83
30935;BME280;51033;42.648;23.292;2023-03-14T10:26:16;93574.13;;;8.04;35.40
30935;BME280;51033;42.648;23.292;2023-03-14T10:28:53;93573.78;;;7.97;35.53
30935;BME280;51033;42.648;23.292;2023-03-14T10:31:24;93580.69;;;8.37;36.34
30935;BME280;51033;42.648;23.292;2023-03-14T10:34:02;93553.50;;;8.23;35.56
30935;BME280;51033;42.648;23.292;2023-03-14T10:36:32;93549.34;;;8.70;38.37
30935;BME280;51033;42.648;23.292;2023-03-14T10:41:52;93541.59;;;8.91;35.42
30935;BME280;51033;42.648;23.292;2023-03-14T10:44:22;93546.44;;;8.80;35.12
30935;BME280;51033;42.648;23.292;2023-03-14T10:47:16;93526.09;;;8.67;34.81
30935;BME280;51033;42.648;23.292;2023-03-14T10:49:42;93501.97;;;8.86;34.76
30935;BME280;51033;42.648;23.292;2023-03-14T10:54:47;93499.88;;;8.57;35.23
30935;BME280;51033;42.648;23.292;2023-03-14T10:57:12;93509.13;;;8.77;35.31
30935;BME280;51033;42.648;23.292;2023-03-14T10:59:39;93507.88;;;8.66;35.01
30935;BME280;51033;42.648;23.292;2023-03-14T11:07:54;93480.09;;;8.72;35.30
30935;BME280;51033;42.648;23.292;2023-03-14T11:10:35;93475.16;;;8.96;35.07
30935;BME280;51033;42.648;23.292;2023-03-14T11:13:37;93476.38;;;8.81;35.45
30935;BME280;51033;42.648;23.292;2023-03-14T11:16:34;93468.75;;;8.97;35.47
30935;BME280;51033;42.648;23.292;2023-03-14T11:21:45;93444.59;;;8.90;35.82
30935;BME280;51033;42.648;23.292;2023-03-14T11:24:38;93441.78;;;8.95;36.16
30935;BME280;51033;42.648;23.292;2023-03-14T11:30:01;93431.50;;;9.36;35.82
30935;BME280;51033;42.648;23.292;2023-03-14T11:32:44;93429.91;;;9.53;35.19
30935;BME280;51033;42.648;23.292;2023-03-14T11:35:24;93425.81;;;9.64;35.08
30935;BME280;51033;42.648;23.292;2023-03-14T11:38:01;93415.38;;;10.05;40.33
30935;BME280;51033;42.648;23.292;2023-03-14T11:40:28;93397.72;;;9.63;35.04
30935;BME280;51033;42.648;23.292;2023-03-14T11:43:04;93403.03;;;9.63;34.61
30935;BME280;51033;42.648;23.292;2023-03-14T11:45:38;93387.97;;;9.84;34.95
30935;BME280;51033;42.648;23.292;2023-03-14T11:49:11;93396.31;;;10.03;34.57
30935;BME280;51033;42.648;23.292;2023-03-14T11:51:14;93387.47;;;9.91;35.19
30935;BME280;51033;42.648;23.292;2023-03-14T11:56:22;93379.25;;;10.51;34.21
30935;BME280;51033;42.648;23.292;2023-03-14T11:58:55;93386.00;;;10.69;34.09
30935;BME280;51033;42.648;23.292;2023-03-14T12:01:28;93370.28;;;11.17;34.44
30935;BME280;51033;42.648;23.292;2023-03-14T12:04:12;93351.75;;;10.88;33.05
30935;BME280;51033;42.648;23.292;2023-03-14T12:09:12;93329.00;;;10.91;32.55
30935;BME280;51033;42.648;23.292;2023-03-14T12:14:36;93344.16;;;11.32;31.89
30935;BME280;51033;42.648;23.292;2023-03-14T12:17:33;93335.78;;;11.21;32.24
30935;BME280;51033;42.648;23.292;2023-03-14T12:20:05;93322.38;;;11.17;32.79
30935;BME280;51033;42.648;23.292;2023-03-14T12:22:36;93327.72;;;10.97;32.86
30935;BME280;51033;42.648;23.292;2023-03-14T12:25:20;93322.16;;;10.90;32.95
30935;BME280;51033;42.648;23.292;2023-03-14T12:35:40;93304.50;;;11.18;31.69
30935;BME280;51033;42.648;23.292;2023-03-14T12:38:16;93296.56;;;10.97;31.70
30935;BME280;51033;42.648;23.292;2023-03-14T12:41:14;93301.22;;;11.00;31.65
30935;BME280;51033;42.648;23.292;2023-03-14T12:43:40;93294.59;;;11.06;31.81
30935;BME280;51033;42.648;23.292;2023-03-14T12:48:40;93262.34;;;10.75;31.53
30935;BME280;51033;42.648;23.292;2023-03-14T12:51:26;93253.69;;;10.66;31.73
30935;BME280;51033;42.648;23.292;2023-03-14T12:56:25;93251.19;;;11.14;31.94
30935;BME280;51033;42.648;23.292;2023-03-14T13:01:23;93225.91;;;11.45;31.85
30935;BME280;51033;42.648;23.292;2023-03-14T13:03:56;93257.06;;;11.44;31.07
30935;BME280;51033;42.648;23.292;2023-03-14T13:09:45;93239.94;;;11.54;30.49
30935;BME280;51033;42.648;23.292;2023-03-14T13:12:16;93241.56;;;11.34;30.16
30935;BME280;51033;42.648;23.292;2023-03-14T13:14:45;93244.34;;;11.98;36.33
30935;BME280;51033;42.648;23.292;2023-03-14T13:17:13;93227.72;;;11.89;30.49
30935;BME280;51033;42.648;23.292;2023-03-14T13:19:39;93213.84;;;11.96;30.42
30935;BME280;51033;42.648;23.292;2023-03-14T13:22:15;93222.75;;;12.28;30.18
30935;BME280;51033;42.648;23.292;2023-03-14T13:24:42;93195.66;;;12.26;29.82
30935;BME280;51033;42.648;23.292;2023-03-14T13:27:17;93215.22;;;12.30;30.13
30935;BME280;51033;42.648;23.292;2023-03-14T13:29:44;93190.72;;;12.12;30.09
30935;BME280;51033;42.648;23.292;2023-03-14T13:32:20;93204.13;;;12.56;29.07
30935;BME280;51033;42.648;23.292;2023-03-14T13:34:46;93196.88;;;12.68;28.98
30935;BME280;51033;42.648;23.292;2023-03-14T13:37:23;93179.31;;;11.87;29.24
30935;BME280;51033;42.648;23.292;2023-03-14T13:39:54;93174.09;;;11.91;29.44
30935;BME280;51033;42.648;23.292;2023-03-14T13:42:21;93175.09;;;11.86;29.83
30935;BME280;51033;42.648;23.292;2023-03-14T13:44:51;93175.66;;;11.92;29.38
30935;BME280;51033;42.648;23.292;2023-03-14T13:47:19;93167.75;;;11.83;30.11
30935;BME280;51033;42.648;23.292;2023-03-14T13:49:45;93164.34;;;11.83;29.79
30935;BME280;51033;42.648;23.292;2023-03-14T13:52:36;93152.72;;;11.63;29.55
30935;BME280;51033;42.648;23.292;2023-03-14T13:55:04;93158.09;;;11.91;29.60
30935;BME280;51033;42.648;23.292;2023-03-14T13:57:44;93154.16;;;12.13;29.14
30935;BME280;51033;42.648;23.292;2023-03-14T14:00:21;93138.47;;;12.23;29.19
30935;BME280;51033;42.648;23.292;2023-03-14T14:02:49;93140.16;;;12.16;29.18